createdAt,value
2022-12-29T12:38:40.479Z,15.98
2022-12-29T12:41:07.897Z,15.00
2022-12-29T12:43:53.974Z,15.93
2022-12-29T12:46:21.691Z,14.85
2022-12-29T12:49:07.699Z,14.65
2022-12-29T12:51:37.740Z,14.85
2022-12-29T12:54:04.981Z,15.70
2022-12-29T12:57:04.713Z,14.55
2022-12-29T12:59:37.441Z,13.80
2022-12-29T13:02:23.704Z,14.30
2022-12-29T13:05:00.857Z,14.90
2022-12-29T13:07:28.031Z,14.60
2022-12-29T13:10:04.098Z,16.35
2022-12-29T13:12:43.113Z,14.52
2022-12-29T13:15:29.026Z,14.27
2022-12-29T13:18:01.581Z,17.17
2022-12-29T13:20:32.901Z,15.13
2022-12-29T13:23:03.057Z,15.25
2022-12-29T13:25:49.141Z,15.23
2022-12-29T13:28:20.038Z,15.15
2022-12-29T13:30:57.686Z,16.00
2022-12-29T13:33:34.227Z,14.25
2022-12-29T13:36:05.494Z,14.23
2022-12-29T13:38:35.372Z,14.85
2022-12-29T13:41:05.929Z,14.73
2022-12-29T13:43:34.243Z,15.23
2022-12-29T13:46:04.814Z,14.45
2022-12-29T13:48:45.249Z,15.73
2022-12-29T13:51:13.061Z,15.35
2022-12-29T13:54:00.115Z,13.75
2022-12-29T13:56:33.355Z,13.65
2022-12-29T13:59:06.666Z,15.90
2022-12-29T14:01:37.656Z,13.85
2022-12-29T14:04:11.247Z,13.98
2022-12-29T14:06:41.480Z,15.13
2022-12-29T14:09:35.047Z,16.48
2022-12-29T14:12:02.551Z,15.00
2022-12-29T14:14:32.234Z,14.23
2022-12-29T14:17:14.752Z,15.27
2022-12-29T14:19:44.580Z,14.85
2022-12-29T14:24:46.606Z,14.52
2022-12-29T14:27:13.738Z,14.32
2022-12-29T14:29:40.975Z,14.88
2022-12-29T14:32:26.316Z,13.77
2022-12-29T14:34:53.470Z,13.25
2022-12-29T14:37:29.704Z,14.00
2022-12-29T14:40:15.396Z,14.35
2022-12-29T14:42:43.074Z,15.05
2022-12-29T14:45:13.676Z,15.50
2022-12-29T14:47:45.195Z,15.85
2022-12-29T14:50:12.352Z,14.57
2022-12-29T14:52:48.748Z,15.63
2022-12-29T14:55:19.036Z,16.20
2022-12-29T14:57:49.853Z,14.00
2022-12-29T15:00:17.168Z,13.68
2022-12-29T15:02:47.167Z,16.38
2022-12-29T15:05:37.531Z,14.85
2022-12-29T15:08:05.205Z,13.95
2022-12-29T15:10:44.377Z,14.93
2022-12-29T15:13:16.877Z,17.48
2022-12-29T15:15:44.175Z,19.40
2022-12-29T15:18:16.563Z,16.95
2022-12-29T15:20:43.939Z,15.38
2022-12-29T15:23:12.632Z,20.50
2022-12-29T15:25:48.412Z,18.27
2022-12-29T15:28:15.730Z,15.75
2022-12-29T15:30:56.604Z,18.73
2022-12-29T15:33:24.979Z,16.85
2022-12-29T15:35:53.139Z,17.15
2022-12-29T15:38:34.711Z,17.20
2022-12-29T15:41:08.811Z,17.17
2022-12-29T15:43:54.990Z,17.02
2022-12-29T15:46:22.312Z,16.73
2022-12-29T15:48:49.550Z,15.23
2022-12-29T15:51:19.806Z,16.38
2022-12-29T15:53:51.929Z,16.17
2022-12-29T15:56:19.344Z,16.98
2022-12-29T15:58:49.526Z,16.00
2022-12-29T16:01:19.631Z,17.70
2022-12-29T16:03:47.637Z,16.63
2022-12-29T16:06:29.472Z,15.38
2022-12-29T16:09:01.398Z,15.80
2022-12-29T16:11:31.665Z,14.15
2022-12-29T16:13:58.826Z,14.43
2022-12-29T16:16:29.234Z,15.60
2022-12-29T16:18:59.830Z,13.80
2022-12-29T16:21:27.007Z,16.55
2022-12-29T16:23:55.453Z,16.73
2022-12-29T16:26:23.770Z,16.17
2022-12-29T16:29:02.162Z,15.40
2022-12-29T16:31:37.016Z,17.10
2022-12-29T16:34:22.657Z,15.98
2022-12-29T16:36:58.997Z,16.55
2022-12-29T16:39:29.124Z,16.30
2022-12-29T16:41:56.762Z,15.57
2022-12-29T16:44:28.949Z,14.80
2022-12-29T16:47:18.523Z,14.60
2022-12-29T16:49:51.371Z,17.00
2022-12-29T16:52:27.106Z,17.80
2022-12-29T16:54:56.316Z,16.20
2022-12-29T16:57:27.819Z,16.92
2022-12-29T16:59:57.468Z,15.43
2022-12-29T17:02:26.046Z,14.93
2022-12-29T17:04:53.845Z,16.60
2022-12-29T17:07:25.272Z,16.73
2022-12-29T17:09:54.250Z,17.10
2022-12-29T17:12:23.527Z,17.15
2022-12-29T17:14:53.808Z,18.52
2022-12-29T17:17:41.231Z,17.95
2022-12-29T17:20:08.530Z,19.67
2022-12-29T17:22:36.868Z,19.23
2022-12-29T17:25:04.354Z,17.88
2022-12-29T17:27:43.540Z,16.88
2022-12-29T17:30:13.843Z,16.83
2022-12-29T17:32:41.952Z,19.85
2022-12-29T17:35:15.999Z,16.27
2022-12-29T17:37:45.785Z,16.17
2022-12-29T17:40:33.376Z,16.20
2022-12-29T17:43:00.971Z,16.30
2022-12-29T17:45:28.214Z,20.95
2022-12-29T20:23:45.625Z,5.20
2022-12-29T20:26:14.429Z,7.50
2022-12-29T20:28:42.083Z,6.18
2022-12-29T20:31:15.163Z,7.10
2022-12-29T20:33:42.564Z,4.95
2022-12-29T20:36:11.724Z,4.25
2022-12-29T20:38:39.340Z,6.35
2022-12-29T20:41:06.847Z,5.57
2022-12-29T20:43:34.459Z,4.18
2022-12-29T20:46:02.184Z,5.13
2022-12-29T20:48:30.737Z,6.72
2022-12-29T20:51:01.241Z,6.47
2022-12-29T20:53:34.534Z,6.78
2022-12-29T20:56:06.546Z,4.68
2022-12-29T20:58:35.397Z,4.38
2022-12-29T21:01:17.460Z,5.80
2022-12-29T21:03:44.911Z,8.38
2022-12-29T21:06:12.995Z,4.45
2022-12-29T21:08:40.635Z,6.43
2022-12-29T21:11:07.791Z,4.97
2022-12-29T21:13:35.002Z,5.97
2022-12-29T21:16:04.011Z,4.78
2022-12-29T21:18:31.638Z,4.63
2022-12-29T21:21:03.625Z,6.38
2022-12-29T21:23:30.880Z,4.82
2022-12-29T21:26:00.235Z,3.75
2022-12-29T21:28:27.552Z,6.30
2022-12-29T21:30:54.953Z,5.30
2022-12-29T21:33:22.235Z,4.63
2022-12-29T21:35:49.497Z,4.20
2022-12-29T21:38:16.679Z,5.53
2022-12-29T21:40:43.818Z,4.75
2022-12-29T21:43:11.661Z,6.40
2022-12-29T21:45:38.896Z,4.43
2022-12-29T21:48:24.235Z,3.95
2022-12-29T21:51:12.685Z,5.22
2022-12-29T21:53:41.395Z,3.58
2022-12-29T21:56:08.647Z,5.50
2022-12-29T21:58:55.551Z,5.57
2022-12-29T22:01:42.126Z,3.90
2022-12-29T22:04:30.271Z,6.55
2022-12-29T22:07:16.199Z,7.55
2022-12-29T22:10:02.510Z,8.18
2022-12-29T22:12:51.684Z,7.80
2022-12-29T22:15:19.169Z,4.57
2022-12-29T22:17:50.187Z,5.93
2022-12-29T22:20:18.337Z,3.25
2022-12-29T22:22:45.620Z,6.57
2022-12-29T22:25:12.938Z,7.30
2022-12-29T22:27:40.255Z,6.20
2022-12-29T22:30:08.176Z,6.78
2022-12-29T22:32:35.944Z,5.47
2022-12-29T22:35:07.784Z,8.23
2022-12-29T22:37:36.078Z,7.93
2022-12-29T22:40:03.750Z,5.55
2022-12-29T22:42:31.575Z,8.20
2022-12-29T22:44:58.833Z,6.78
2022-12-29T22:47:26.060Z,10.90
2022-12-29T22:49:53.318Z,8.00
2022-12-29T22:52:20.547Z,7.35
2022-12-29T22:54:47.757Z,7.28
2022-12-29T22:57:14.959Z,8.63
2022-12-29T22:59:42.218Z,6.68
2022-12-29T23:02:09.469Z,6.32
2022-12-29T23:07:24.485Z,5.05
2022-12-29T23:09:51.774Z,4.55
2022-12-29T23:12:19.056Z,3.83
2022-12-29T23:14:46.184Z,6.15
2022-12-29T23:17:13.370Z,7.97
2022-12-29T23:19:40.544Z,4.70
2022-12-29T23:22:07.732Z,2.95
2022-12-29T23:24:34.900Z,3.85
2022-12-29T23:27:02.289Z,4.07
2022-12-29T23:29:29.578Z,3.85
2022-12-29T23:31:56.696Z,4.90
2022-12-29T23:34:23.979Z,4.22
2022-12-29T23:36:51.137Z,4.75
2022-12-29T23:39:19.997Z,5.30
2022-12-29T23:41:47.356Z,3.45
2022-12-29T23:44:14.611Z,4.68
2022-12-29T23:46:42.035Z,5.18
2022-12-29T23:49:10.147Z,4.93
2022-12-29T23:51:37.655Z,4.75
2022-12-29T23:54:05.003Z,5.15
2022-12-29T23:56:32.633Z,5.18
2022-12-29T23:59:00.064Z,7.05
